Time;durP1;ratioP1;P1;durP2;ratioP2;P2;SDS_P1;SDS_P2;PMS_P1;PMS_P2;Temp;Humidity;BMP_temperature;BMP_pressure;BME280_temperature;BME280_humidity;BME280_pressure;Samples;Min_cycle;Max_cycle;Signal;HPM_P1;HPM_P2
2021/01/04 00:02:02;;;;;;;5.25;3.08;;;;;;;;;;5094203;28;20097;-72
2021/01/04 00:05:03;;;;;;;7.07;3.78;;;;;;;;;;5076575;28;20559;-72
2021/01/04 00:07:51;;;;;;;5.45;3.38;;;;;;;;;;5094057;28;20032;-72
2021/01/04 00:10:29;;;;;;;5.53;3.85;;;;;;;;;;5094019;28;20036;-72
2021/01/04 00:12:58;;;;;;;4.03;3.28;;;;;;;;;;5093958;28;20392;-72
2021/01/04 00:15:29;;;;;;;5.22;3.10;;;;;;;;;;5094186;28;20641;-72
2021/01/04 00:18:37;;;;;;;4.60;3.10;;;;;;;;;;5093558;28;20038;-73
2021/01/04 00:21:33;;;;;;;4.63;3.40;;;;;;;;;;5093971;28;20046;-72
2021/01/04 00:24:14;;;;;;;4.82;3.63;;;;;;;;;;5093922;28;20477;-72
2021/01/04 00:26:57;;;;;;;4.47;3.00;;;;;;;;;;5093677;28;20078;-72
2021/01/04 00:29:23;;;;;;;5.53;3.35;;;;;;;;;;5093910;28;20036;-72
2021/01/04 00:31:53;;;;;;;5.70;3.70;;;;;;;;;;5093555;28;20036;-72
2021/01/04 00:34:27;;;;;;;5.53;3.42;;;;;;;;;;5093825;28;20039;-72
2021/01/04 00:37:02;;;;;;;4.28;2.60;;;;;;;;;;5093479;28;20036;-72
2021/01/04 00:39:53;;;;;;;5.32;3.53;;;;;;;;;;5093655;28;20044;-73
2021/01/04 00:42:47;;;;;;;4.53;3.45;;;;;;;;;;5093636;28;20453;-72
2021/01/04 00:45:25;;;;;;;4.57;3.30;;;;;;;;;;5090206;28;20052;-72
2021/01/04 00:48:09;;;;;;;5.03;3.70;;;;;;;;;;5093224;28;20036;-72
2021/01/04 00:50:59;;;;;;;3.97;3.13;;;;;;;;;;5093642;28;20523;-72
2021/01/04 00:53:40;;;;;;;3.85;2.97;;;;;;;;;;5092333;28;20047;-72
2021/01/04 00:56:18;;;;;;;3.20;2.90;;;;;;;;;;5093391;28;20040;-72
2021/01/04 00:59:08;;;;;;;3.13;2.83;;;;;;;;;;5093119;28;20039;-72
2021/01/04 01:02:05;;;;;;;4.53;3.40;;;;;;;;;;5093031;28;20039;-72
2021/01/04 01:05:08;;;;;;;5.35;3.25;;;;;;;;;;5092826;28;20619;-72
2021/01/04 01:08:04;;;;;;;4.13;2.90;;;;;;;;;;5093203;28;20043;-72
2021/01/04 01:10:34;;;;;;;4.20;2.97;;;;;;;;;;5093502;28;20036;-72
2021/01/04 01:13:21;;;;;;;3.53;3.10;;;;;;;;;;5093212;28;20040;-72
2021/01/04 01:15:51;;;;;;;;;;;;;;;;;;5093859;28;20067;-72
2021/01/04 01:18:35;;;;;;;4.38;3.40;;;;;;;;;;5092845;28;19912;-72
2021/01/04 01:21:06;;;;;;;4.68;3.33;;;;;;;;;;5092210;28;20047;-72
2021/01/04 01:23:31;;;;;;;4.15;3.20;;;;;;;;;;5092612;28;20036;-72
2021/01/04 01:26:04;;;;;;;3.92;3.00;;;;;;;;;;5093101;28;20107;-72
2021/01/04 01:29:03;;;;;;;3.67;2.88;;;;;;;;;;5093122;28;20138;-72
2021/01/04 01:31:46;;;;;;;5.05;3.50;;;;;;;;;;5093131;28;20097;-72
2021/01/04 01:34:14;;;;;;;3.88;3.00;;;;;;;;;;5092918;28;20101;-72
2021/01/04 01:37:01;;;;;;;5.07;3.30;;;;;;;;;;5092996;28;20035;-73
2021/01/04 01:39:59;;;;;;;4.88;3.55;;;;;;;;;;5091411;28;20032;-73
2021/01/04 01:43:01;;;;;;;5.65;3.70;;;;;;;;;;5093175;28;20036;-72
2021/01/04 01:45:41;;;;;;;5.07;3.67;;;;;;;;;;5092795;28;20067;-73
2021/01/04 01:48:31;;;;;;;5.38;3.95;;;;;;;;;;5092003;28;20085;-73
2021/01/04 01:51:31;;;;;;;4.82;3.40;;;;;;;;;;5093208;28;20032;-73
2021/01/04 01:54:35;;;;;;;6.97;4.03;;;;;;;;;;5091429;28;20036;-73
2021/01/04 01:57:19;;;;;;;6.53;4.43;;;;;;;;;;5092920;28;20039;-73
2021/01/04 02:00:06;;;;;;;6.93;4.50;;;;;;;;;;5092955;28;20066;-73
2021/01/04 02:03:01;;;;;;;6.95;4.70;;;;;;;;;;5092660;28;20028;-73
2021/01/04 02:06:01;;;;;;;5.78;4.25;;;;;;;;;;5092884;28;20079;-72
2021/01/04 02:08:29;;;;;;;6.00;4.22;;;;;;;;;;5092691;28;20032;-73
2021/01/04 02:11:01;;;;;;;5.70;3.92;;;;;;;;;;5092822;28;20524;-72
2021/01/04 02:13:35;;;;;;;5.95;3.60;;;;;;;;;;5092762;28;20032;-73
2021/01/04 02:16:09;;;;;;;4.80;3.50;;;;;;;;;;5094134;28;20039;-73
2021/01/04 02:19:12;;;;;;;4.18;3.10;;;;;;;;;;5096209;28;20488;-72
2021/01/04 02:21:57;;;;;;;4.63;3.10;;;;;;;;;;5096126;28;20036;-72
2021/01/04 02:24:24;;;;;;;4.75;3.03;;;;;;;;;;5096296;28;20047;-73
2021/01/04 02:27:02;;;;;;;5.07;3.60;;;;;;;;;;5095115;28;20427;-73
2021/01/04 02:29:28;;;;;;;5.15;3.53;;;;;;;;;;5096116;28;20500;-72
2021/01/04 02:32:00;;;;;;;3.53;2.83;;;;;;;;;;5095983;28;20358;-73
2021/01/04 02:34:32;;;;;;;4.85;3.33;;;;;;;;;;5095977;28;20040;-72
2021/01/04 02:36:59;;;;;;;4.88;2.80;;;;;;;;;;5096025;28;20119;-72
2021/01/04 02:39:39;;;;;;;3.03;2.58;;;;;;;;;;5095807;28;20036;-73
2021/01/04 02:42:04;;;;;;;4.10;3.13;;;;;;;;;;5095667;28;20028;-73
2021/01/04 02:44:31;;;;;;;5.55;2.80;;;;;;;;;;5095659;28;20593;-73
2021/01/04 02:47:37;;;;;;;3.50;3.20;;;;;;;;;;5095086;28;20081;-73
2021/01/04 02:50:30;;;;;;;3.95;2.88;;;;;;;;;;5084688;28;20457;-73
2021/01/04 02:53:05;;;;;;;4.30;2.85;;;;;;;;;;5095708;28;20024;-73
2021/01/04 02:55:54;;;;;;;4.53;3.17;;;;;;;;;;5095746;28;20481;-73
2021/01/04 02:58:35;;;;;;;4.65;3.08;;;;;;;;;;5095725;28;20478;-73
2021/01/04 03:01:07;;;;;;;3.85;3.00;;;;;;;;;;5095562;28;20040;-72
2021/01/04 03:03:36;;;;;;;3.92;2.92;;;;;;;;;;5095351;28;20435;-72
2021/01/04 03:06:03;;;;;;;3.10;2.65;;;;;;;;;;5095494;28;20491;-72
2021/01/04 03:08:29;;;;;;;4.32;2.88;;;;;;;;;;5095323;28;20120;-73
2021/01/04 03:10:55;;;;;;;5.05;3.28;;;;;;;;;;5095419;28;20103;-73
2021/01/04 03:13:35;;;;;;;3.53;2.95;;;;;;;;;;5095292;28;20050;-73
2021/01/04 03:16:15;;;;;;;3.30;2.80;;;;;;;;;;5095323;28;20051;-72
2021/01/04 03:18:48;;;;;;;4.00;2.97;;;;;;;;;;5094794;28;20039;-72
2021/01/04 03:21:14;;;;;;;4.35;3.10;;;;;;;;;;5095036;28;20036;-73
2021/01/04 03:23:46;;;;;;;3.20;2.63;;;;;;;;;;5095194;28;20032;-72
2021/01/04 03:26:18;;;;;;;3.28;2.80;;;;;;;;;;5094818;28;20036;-73
2021/01/04 03:28:43;;;;;;;4.13;3.05;;;;;;;;;;5094076;28;20036;-72
2021/01/04 03:31:10;;;;;;;4.25;2.80;;;;;;;;;;5093972;28;20378;-73
2021/01/04 03:33:35;;;;;;;3.53;2.70;;;;;;;;;;5094575;28;20088;-73
2021/01/04 03:36:01;;;;;;;3.45;2.67;;;;;;;;;;5094911;28;20470;-72
2021/01/04 03:38:26;;;;;;;3.80;2.88;;;;;;;;;;5093404;28;20032;-73
2021/01/04 03:40:52;;;;;;;4.63;2.80;;;;;;;;;;5094740;28;20076;-73
2021/01/04 03:43:18;;;;;;;4.68;3.05;;;;;;;;;;5094334;28;20063;-72
2021/01/04 03:45:44;;;;;;;4.05;2.92;;;;;;;;;;5093493;28;20040;-72
2021/01/04 03:48:09;;;;;;;4.38;3.15;;;;;;;;;;5094470;28;20039;-72
2021/01/04 03:50:35;;;;;;;3.75;2.70;;;;;;;;;;5094362;28;20042;-72
2021/01/04 03:53:00;;;;;;;4.78;3.47;;;;;;;;;;5094436;28;20044;-72
2021/01/04 03:55:26;;;;;;;3.55;2.90;;;;;;;;;;5094593;28;20064;-72
2021/01/04 03:57:52;;;;;;;3.70;2.75;;;;;;;;;;5094447;28;20062;-72
2021/01/04 04:00:18;;;;;;;5.03;2.95;;;;;;;;;;5094367;28;20040;-72
2021/01/04 04:02:44;;;;;;;4.50;3.40;;;;;;;;;;5094376;28;20043;-72
2021/01/04 04:05:13;;;;;;;4.22;2.97;;;;;;;;;;5094195;28;20089;-72
2021/01/04 04:07:40;;;;;;;4.57;3.10;;;;;;;;;;5093897;28;20126;-72
2021/01/04 04:10:06;;;;;;;4.93;3.42;;;;;;;;;;5094320;28;20035;-72
2021/01/04 04:12:31;;;;;;;4.45;3.20;;;;;;;;;;5094039;28;20389;-72
2021/01/04 04:14:56;;;;;;;6.20;4.18;;;;;;;;;;5093250;28;20457;-72
2021/01/04 04:17:22;;;;;;;5.15;3.53;;;;;;;;;;5093860;28;20047;-72
2021/01/04 04:19:49;;;;;;;5.53;3.60;;;;;;;;;;5093646;28;20032;-72
2021/01/04 04:22:15;;;;;;;3.80;3.05;;;;;;;;;;5093864;28;20111;-72
2021/01/04 04:24:42;;;;;;;4.45;3.17;;;;;;;;;;5093735;28;20047;-72
2021/01/04 04:27:08;;;;;;;4.07;2.88;;;;;;;;;;5093992;28;20039;-72
2021/01/04 04:29:36;;;;;;;4.63;3.00;;;;;;;;;;5093802;28;20036;-72
2021/01/04 04:32:01;;;;;;;3.80;2.70;;;;;;;;;;5093733;28;20032;-72
2021/01/04 04:34:27;;;;;;;3.75;3.10;;;;;;;;;;5093843;28;20036;-72
2021/01/04 04:36:52;;;;;;;3.08;2.67;;;;;;;;;;5093833;28;20160;-72
2021/01/04 04:39:17;;;;;;;3.58;2.83;;;;;;;;;;5092723;28;20093;-72
2021/01/04 04:41:46;;;;;;;2.92;2.50;;;;;;;;;;5093594;28;20110;-72
2021/01/04 04:44:51;;;;;;;4.35;2.85;;;;;;;;;;5093530;28;20101;-72
2021/01/04 04:47:45;;;;;;;3.13;2.50;;;;;;;;;;5093531;28;20088;-72
2021/01/04 04:50:33;;;;;;;4.18;3.00;;;;;;;;;;5020682;28;20046;-72
2021/01/04 04:53:17;;;;;;;3.28;2.70;;;;;;;;;;5092416;28;20374;-72
2021/01/04 04:56:05;;;;;;;4.00;3.17;;;;;;;;;;5093528;28;20465;-72
2021/01/04 04:58:42;;;;;;;4.07;2.90;;;;;;;;;;5093495;28;20067;-72
2021/01/04 05:01:10;;;;;;;3.80;2.90;;;;;;;;;;5093081;28;20036;-72
2021/01/04 05:03:55;;;;;;;2.95;2.60;;;;;;;;;;5093342;28;20032;-72
2021/01/04 05:06:44;;;;;;;3.28;2.60;;;;;;;;;;5093032;28;20063;-72
2021/01/04 05:09:18;;;;;;;4.57;3.22;;;;;;;;;;5093114;28;20039;-72
2021/01/04 05:11:48;;;;;;;3.40;2.90;;;;;;;;;;5093248;28;20458;-72
2021/01/04 05:14:24;;;;;;;4.10;3.15;;;;;;;;;;5092149;28;20058;-72
2021/01/04 05:16:58;;;;;;;3.78;2.97;;;;;;;;;;5092929;28;20043;-72
2021/01/04 05:20:01;;;;;;;5.75;3.10;;;;;;;;;;5093187;28;20040;-72
2021/01/04 05:23:04;;;;;;;4.18;3.08;;;;;;;;;;5093252;28;20040;-72
2021/01/04 05:25:47;;;;;;;3.85;3.30;;;;;;;;;;5093161;28;20025;-72
2021/01/04 05:28:51;;;;;;;3.88;3.25;;;;;;;;;;5093096;28;20075;-72
2021/01/04 05:31:39;;;;;;;4.22;3.13;;;;;;;;;;5092738;28;20421;-72
2021/01/04 05:34:38;;;;;;;4.32;3.10;;;;;;;;;;5092883;28;20072;-72
2021/01/04 05:37:39;;;;;;;4.45;3.22;;;;;;;;;;5077894;28;20047;-72
2021/01/04 05:40:13;;;;;;;4.43;3.20;;;;;;;;;;5092798;28;20079;-73
2021/01/04 05:42:55;;;;;;;6.43;3.20;;;;;;;;;;5092912;28;20043;-72
2021/01/04 05:45:30;;;;;;;4.80;3.70;;;;;;;;;;5093060;28;20056;-72
2021/01/04 05:48:27;;;;;;;5.43;3.70;;;;;;;;;;5092893;28;20044;-72
2021/01/04 05:51:26;;;;;;;5.00;3.60;;;;;;;;;;5096009;28;20470;-72
2021/01/04 05:53:52;;;;;;;4.50;3.25;;;;;;;;;;5095831;28;20082;-72
2021/01/04 05:56:20;;;;;;;4.47;3.33;;;;;;;;;;5096465;28;20056;-72
2021/01/04 05:58:45;;;;;;;4.88;3.45;;;;;;;;;;5095385;28;20084;-73
2021/01/04 06:01:24;;;;;;;4.10;3.33;;;;;;;;;;5095569;28;20040;-72
2021/01/04 06:04:00;;;;;;;4.30;3.47;;;;;;;;;;5095963;28;20036;-72
2021/01/04 06:06:42;;;;;;;4.60;3.10;;;;;;;;;;5096493;28;20044;-72
2021/01/04 06:09:13;;;;;;;4.38;3.03;;;;;;;;;;5096597;28;20040;-72
2021/01/04 06:11:58;;;;;;;3.88;3.13;;;;;;;;;;5096242;28;20119;-72
2021/01/04 06:14:26;;;;;;;5.55;3.60;;;;;;;;;;5096426;28;20572;-72
2021/01/04 06:17:07;;;;;;;4.25;3.47;;;;;;;;;;5095239;28;20043;-72
2021/01/04 06:19:37;;;;;;;6.50;3.92;;;;;;;;;;5096250;28;20071;-72
2021/01/04 06:22:11;;;;;;;5.38;3.95;;;;;;;;;;5096310;28;20036;-72
2021/01/04 06:24:39;;;;;;;3.97;3.35;;;;;;;;;;5096236;28;20068;-72
2021/01/04 06:27:32;;;;;;;6.28;4.25;;;;;;;;;;5096110;28;20036;-73
2021/01/04 06:30:13;;;;;;;4.93;3.70;;;;;;;;;;5096024;28;20117;-73
2021/01/04 06:32:39;;;;;;;4.95;3.75;;;;;;;;;;5096137;28;20035;-73
2021/01/04 06:35:22;;;;;;;5.07;3.90;;;;;;;;;;5095207;28;20189;-73
2021/01/04 06:37:47;;;;;;;5.10;3.72;;;;;;;;;;5095719;28;20031;-73
2021/01/04 06:40:32;;;;;;;4.20;3.40;;;;;;;;;;5095841;28;20036;-72
2021/01/04 06:43:08;;;;;;;4.63;3.20;;;;;;;;;;5095580;28;20489;-75
2021/01/04 06:45:44;;;;;;;4.47;3.22;;;;;;;;;;5094528;28;20044;-76
2021/01/04 06:48:12;;;;;;;3.72;3.05;;;;;;;;;;5095479;28;20089;-73
2021/01/04 06:51:12;;;;;;;5.13;3.42;;;;;;;;;;5095500;28;20036;-73
2021/01/04 06:54:14;;;;;;;4.38;3.35;;;;;;;;;;5072087;28;20067;-73
2021/01/04 06:57:07;;;;;;;4.28;3.03;;;;;;;;;;5072671;28;20046;-73
2021/01/04 07:00:09;;;;;;;4.15;2.97;;;;;;;;;;5072733;28;20476;-73
2021/01/04 07:02:46;;;;;;;4.25;2.55;;;;;;;;;;5072549;28;20055;-73
2021/01/04 07:05:30;;;;;;;3.40;2.60;;;;;;;;;;5072929;28;20048;-73
2021/01/04 07:08:09;;;;;;;2.10;1.90;;;;;;;;;;5072808;28;20139;-73
2021/01/04 07:10:56;;;;;;;7.00;2.10;;;;;;;;;;5072362;28;20037;-73
2021/01/04 07:13:51;;;;;;;2.80;1.85;;;;;;;;;;5061060;28;20045;-74
2021/01/04 07:16:16;;;;;;;2.50;2.00;;;;;;;;;;5060009;28;20113;-74
2021/01/04 07:19:06;;;;;;;2.03;1.83;;;;;;;;;;5072749;28;20206;-73
2021/01/04 07:21:46;;;;;;;2.33;2.03;;;;;;;;;;5072681;28;20135;-72
2021/01/04 07:24:32;;;;;;;3.58;2.78;;;;;;;;;;5080991;28;20040;-71
2021/01/04 07:27:19;;;;;;;4.88;3.70;;;;;;;;;;5095190;28;20064;-71
2021/01/04 07:30:11;;;;;;;6.72;4.30;;;;;;;;;;5094889;28;20036;-75
2021/01/04 07:32:42;;;;;;;5.50;4.07;;;;;;;;;;5074442;28;20359;-71
2021/01/04 07:35:10;;;;;;;5.70;3.70;;;;;;;;;;5074142;28;20037;-71
2021/01/04 07:37:54;;;;;;;4.80;3.63;;;;;;;;;;5074502;28;20037;-71
2021/01/04 07:40:48;;;;;;;3.45;2.58;;;;;;;;;;5074452;28;20120;-73
2021/01/04 07:43:58;;;;;;;4.10;2.50;;;;;;;;;;5074159;28;20486;-74
2021/01/04 07:46:45;;;;;;;4.25;2.10;;;;;;;;;;5088097;28;20066;-75
2021/01/04 07:49:44;;;;;;;2.42;2.10;;;;;;;;;;5093696;28;20051;-73
2021/01/04 07:52:25;;;;;;;2.95;2.10;;;;;;;;;;5093527;28;20534;-74
2021/01/04 07:55:28;;;;;;;2.33;1.95;;;;;;;;;;5094039;28;20120;-73
2021/01/04 07:58:08;;;;;;;2.92;2.10;;;;;;;;;;5094363;28;20101;-73
2021/01/04 08:01:11;;;;;;;2.80;2.13;;;;;;;;;;5094290;28;20084;-73
2021/01/04 08:03:57;;;;;;;3.42;2.42;;;;;;;;;;5094108;28;20068;-73
2021/01/04 08:06:53;;;;;;;4.57;2.83;;;;;;;;;;5094349;28;20047;-73
2021/01/04 08:09:49;;;;;;;11.25;5.40;;;;;;;;;;5094263;28;20462;-72
2021/01/04 08:12:39;;;;;;;53.22;22.70;;;;;;;;;;5094168;28;20201;-73
2021/01/04 08:15:23;;;;;;;58.03;25.80;;;;;;;;;;5093706;28;20039;-73
2021/01/04 08:17:54;;;;;;;52.15;21.65;;;;;;;;;;5094018;28;20040;-72
2021/01/04 08:20:20;;;;;;;46.10;19.13;;;;;;;;;;5093162;28;20491;-73
2021/01/04 08:23:04;;;;;;;40.17;16.60;;;;;;;;;;5094193;28;20401;-73
2021/01/04 08:25:35;;;;;;;30.92;14.77;;;;;;;;;;5093868;28;20123;-73
2021/01/04 08:29:01;;;;;;;28.50;12.30;;;;;;;;;;5093910;28;20527;-74
2021/01/04 08:31:40;;;;;;;26.33;11.63;;;;;;;;;;5011889;28;20041;-74
2021/01/04 08:34:10;;;;;;;13.38;6.88;;;;;;;;;;5011852;28;20060;-74
2021/01/04 08:36:41;;;;;;;8.63;4.20;;;;;;;;;;5059391;28;20054;-74
2021/01/04 08:39:14;;;;;;;5.38;3.10;;;;;;;;;;5092233;28;20032;-75
2021/01/04 08:41:42;;;;;;;6.93;3.08;;;;;;;;;;5093678;28;20039;-73
2021/01/04 08:44:13;;;;;;;4.22;2.70;;;;;;;;;;5092320;28;20064;-73
2021/01/04 08:46:39;;;;;;;5.25;3.15;;;;;;;;;;5093205;28;20433;-74
2021/01/04 08:49:13;;;;;;;5.65;4.22;;;;;;;;;;5092771;28;20103;-73
2021/01/04 08:51:40;;;;;;;10.10;6.70;;;;;;;;;;5093631;28;20115;-73
2021/01/04 08:54:11;;;;;;;10.63;5.75;;;;;;;;;;5093549;28;20032;-73
2021/01/04 08:56:41;;;;;;;8.90;5.15;;;;;;;;;;5093591;28;20032;-76
2021/01/04 08:59:16;;;;;;;7.43;4.57;;;;;;;;;;5093634;28;20093;-74
2021/01/04 09:01:52;;;;;;;5.68;3.33;;;;;;;;;;5093530;28;20028;-73
2021/01/04 09:04:33;;;;;;;5.13;3.88;;;;;;;;;;5093836;28;20441;-73
2021/01/04 09:07:18;;;;;;;4.25;3.25;;;;;;;;;;5093440;28;20120;-73
2021/01/04 09:10:19;;;;;;;4.63;3.05;;;;;;;;;;5093364;28;20027;-74
2021/01/04 09:12:47;;;;;;;4.63;3.58;;;;;;;;;;5087671;28;20105;-74
2021/01/04 09:15:19;;;;;;;9.00;5.22;;;;;;;;;;5093125;28;20393;-74
2021/01/04 09:17:48;;;;;;;9.27;5.22;;;;;;;;;;5091964;28;20044;-74
2021/01/04 09:20:29;;;;;;;7.32;5.18;;;;;;;;;;5092705;28;20465;-72
2021/01/04 09:23:18;;;;;;;8.10;4.85;;;;;;;;;;5080904;28;20032;-71
2021/01/04 09:25:47;;;;;;;7.50;4.60;;;;;;;;;;5085589;28;20047;-72
2021/01/04 09:28:15;;;;;;;6.30;3.85;;;;;;;;;;5083691;28;20032;-72
2021/01/04 09:30:40;;;;;;;5.90;3.80;;;;;;;;;;5086639;28;20116;-73
2021/01/04 09:33:16;;;;;;;5.95;4.13;;;;;;;;;;5084609;28;20103;-73
2021/01/04 09:35:42;;;;;;;5.15;3.40;;;;;;;;;;5084672;28;20043;-73
2021/01/04 09:38:13;;;;;;;3.95;2.90;;;;;;;;;;5079252;28;20404;-75
2021/01/04 09:40:39;;;;;;;4.18;2.92;;;;;;;;;;5076648;28;20374;-73
2021/01/04 09:43:09;;;;;;;2.92;2.47;;;;;;;;;;5076627;28;20036;-74
2021/01/04 09:45:35;;;;;;;4.63;2.72;;;;;;;;;;5076550;28;20119;-73
2021/01/04 09:48:28;;;;;;;4.15;3.22;;;;;;;;;;5076719;28;20033;-73
2021/01/04 09:51:17;;;;;;;6.70;5.75;;;;;;;;;;5070453;28;20106;-74
2021/01/04 09:53:49;;;;;;;8.55;5.82;;;;;;;;;;5076639;28;20378;-78
2021/01/04 09:56:15;;;;;;;13.82;8.45;;;;;;;;;;5076464;28;20039;-73
2021/01/04 09:58:41;;;;;;;14.98;8.70;;;;;;;;;;5083312;28;20127;-73
2021/01/04 10:01:26;;;;;;;15.35;8.32;;;;;;;;;;5096682;28;20036;-73
2021/01/04 10:03:56;;;;;;;13.25;8.15;;;;;;;;;;5096722;28;20043;-74
2021/01/04 10:06:32;;;;;;;11.95;6.95;;;;;;;;;;5095533;28;20036;-74
2021/01/04 10:08:58;;;;;;;;;;;;;;;;;;5097025;28;20089;-74
2021/01/04 10:11:23;;;;;;;11.70;7.17;;;;;;;;;;5096654;28;20242;-74
2021/01/04 10:13:50;;;;;;;10.20;6.63;;;;;;;;;;5096575;28;20067;-72
2021/01/04 10:16:25;;;;;;;11.82;7.60;;;;;;;;;;5096495;28;20043;-73
2021/01/04 10:18:56;;;;;;;11.85;7.93;;;;;;;;;;5095503;28;20031;-74
2021/01/04 10:21:35;;;;;;;11.43;7.78;;;;;;;;;;5095101;28;20055;-73
2021/01/04 10:24:04;;;;;;;11.43;7.53;;;;;;;;;;5095112;28;20142;-72
2021/01/04 10:26:38;;;;;;;10.18;6.05;;;;;;;;;;5096256;28;20028;-72
2021/01/04 10:29:08;;;;;;;8.40;5.88;;;;;;;;;;5096033;28;20401;-73
2021/01/04 10:31:35;;;;;;;8.30;5.53;;;;;;;;;;5096120;28;20036;-73
2021/01/04 10:34:13;;;;;;;8.65;5.63;;;;;;;;;;5095273;28;20024;-72
2021/01/04 10:36:42;;;;;;;7.68;5.40;;;;;;;;;;5094901;28;20035;-73
2021/01/04 10:39:19;;;;;;;5.90;4.53;;;;;;;;;;5094645;28;20039;-75
2021/01/04 10:41:44;;;;;;;6.30;4.07;;;;;;;;;;5095736;28;20481;-74
2021/01/04 10:44:14;;;;;;;7.15;4.25;;;;;;;;;;5095549;28;20048;-72
2021/01/04 10:46:55;;;;;;;4.70;3.67;;;;;;;;;;5095068;28;20032;-75
2021/01/04 10:49:26;;;;;;;6.50;4.38;;;;;;;;;;5095939;28;20429;-77
2021/01/04 10:51:54;;;;;;;7.75;4.25;;;;;;;;;;5095695;28;20032;-72
2021/01/04 10:54:38;;;;;;;4.60;4.05;;;;;;;;;;5096170;28;20036;-73
2021/01/04 10:57:30;;;;;;;5.40;3.70;;;;;;;;;;5095479;28;20074;-74
2021/01/04 11:00:13;;;;;;;5.20;3.95;;;;;;;;;;5093869;28;20024;-73
2021/01/04 11:02:44;;;;;;;4.05;3.30;;;;;;;;;;5095313;28;20044;-74
2021/01/04 11:05:11;;;;;;;4.90;3.53;;;;;;;;;;5095495;28;20085;-73
2021/01/04 11:07:36;;;;;;;10.88;5.72;;;;;;;;;;5095273;28;20028;-73
2021/01/04 11:10:22;;;;;;;9.32;5.55;;;;;;;;;;5095305;28;20028;-73
2021/01/04 11:12:53;;;;;;;11.43;5.22;;;;;;;;;;5095144;28;20047;-73
2021/01/04 11:15:34;;;;;;;6.55;4.18;;;;;;;;;;5094959;28;20536;-74
2021/01/04 11:18:08;;;;;;;5.53;3.60;;;;;;;;;;5095090;28;20044;-73
2021/01/04 11:20:34;;;;;;;3.83;2.88;;;;;;;;;;5094279;28;20047;-73
2021/01/04 11:23:11;;;;;;;3.83;2.78;;;;;;;;;;5095243;28;20035;-72
2021/01/04 11:25:39;;;;;;;18.08;3.80;;;;;;;;;;5094982;28;20056;-73
2021/01/04 11:28:04;;;;;;;4.93;3.40;;;;;;;;;;5093662;28;20032;-73
2021/01/04 11:30:30;;;;;;;5.72;3.28;;;;;;;;;;5095038;28;20040;-74
2021/01/04 11:33:00;;;;;;;4.60;3.10;;;;;;;;;;5095064;28;20043;-73
2021/01/04 11:35:26;;;;;;;4.00;3.10;;;;;;;;;;5095108;28;20538;-72
2021/01/04 11:37:53;;;;;;;4.00;2.88;;;;;;;;;;5094776;28;20036;-72
2021/01/04 11:40:19;;;;;;;4.20;3.05;;;;;;;;;;5094671;28;20055;-73
2021/01/04 11:42:45;;;;;;;4.32;3.25;;;;;;;;;;5094515;28;20028;-73
2021/01/04 11:45:13;;;;;;;3.97;3.17;;;;;;;;;;5094569;28;20052;-72
2021/01/04 11:47:38;;;;;;;3.90;3.35;;;;;;;;;;5093212;28;20127;-72
2021/01/04 11:50:07;;;;;;;6.82;2.97;;;;;;;;;;5094804;28;20048;-73
2021/01/04 11:52:34;;;;;;;4.07;2.92;;;;;;;;;;5094370;28;20097;-73
2021/01/04 11:55:00;;;;;;;4.47;3.10;;;;;;;;;;5094681;28;20094;-73
2021/01/04 11:57:26;;;;;;;4.15;2.78;;;;;;;;;;5093816;28;20416;-73
2021/01/04 11:59:51;;;;;;;4.60;3.13;;;;;;;;;;5094274;28;20396;-73
2021/01/04 12:02:16;;;;;;;6.28;2.88;;;;;;;;;;5094448;28;20081;-73
2021/01/04 12:04:42;;;;;;;6.28;3.25;;;;;;;;;;5094309;28;20036;-72
2021/01/04 12:07:08;;;;;;;5.28;2.97;;;;;;;;;;5094003;28;20047;-72
2021/01/04 12:09:35;;;;;;;5.25;3.75;;;;;;;;;;5094231;28;20052;-73
2021/01/04 12:12:00;;;;;;;4.10;3.30;;;;;;;;;;5094202;28;20090;-73
2021/01/04 12:14:26;;;;;;;4.60;3.30;;;;;;;;;;5094298;28;20039;-72
2021/01/04 12:16:52;;;;;;;4.75;3.30;;;;;;;;;;5093352;28;20035;-73
2021/01/04 12:19:17;;;;;;;4.30;3.35;;;;;;;;;;5092592;28;20499;-73
2021/01/04 12:21:43;;;;;;;6.43;3.13;;;;;;;;;;5092780;28;20073;-72
2021/01/04 12:24:08;;;;;;;4.45;3.22;;;;;;;;;;5093914;28;20065;-71
2021/01/04 12:26:34;;;;;;;4.70;3.60;;;;;;;;;;5094060;28;20032;-71
2021/01/04 12:28:59;;;;;;;4.75;3.25;;;;;;;;;;5093918;28;20047;-72
2021/01/04 12:31:25;;;;;;;4.93;3.30;;;;;;;;;;5093977;28;20369;-73
2021/01/04 12:33:50;;;;;;;4.40;2.83;;;;;;;;;;5093954;28;20036;-75
2021/01/04 12:36:24;;;;;;;3.58;2.38;;;;;;;;;;5093085;28;20036;-75
2021/01/04 12:38:50;;;;;;;3.25;2.25;;;;;;;;;;5093970;28;20107;-74
2021/01/04 12:41:16;;;;;;;3.75;2.38;;;;;;;;;;5093647;28;20580;-76
2021/01/04 12:43:43;;;;;;;3.97;2.60;;;;;;;;;;5092252;28;20051;-76
2021/01/04 12:46:09;;;;;;;3.97;3.00;;;;;;;;;;5093346;28;20032;-75
2021/01/04 12:48:34;;;;;;;4.43;3.10;;;;;;;;;;5075472;28;20035;-75
2021/01/04 12:51:00;;;;;;;4.38;2.88;;;;;;;;;;5093528;28;20032;-75
2021/01/04 12:53:25;;;;;;;4.30;2.63;;;;;;;;;;5092624;28;20077;-75
2021/01/04 12:55:50;;;;;;;5.70;3.50;;;;;;;;;;5093558;28;20050;-75
2021/01/04 12:58:16;;;;;;;4.15;2.92;;;;;;;;;;5093445;28;20040;-74
2021/01/04 13:00:42;;;;;;;3.65;2.67;;;;;;;;;;5092871;28;20036;-74
2021/01/04 13:03:11;;;;;;;4.55;3.00;;;;;;;;;;5093573;28;20488;-72
2021/01/04 13:05:36;;;;;;;4.25;2.67;;;;;;;;;;5093256;28;20043;-73
2021/01/04 13:08:01;;;;;;;4.07;3.20;;;;;;;;;;5075184;28;20036;-72
2021/01/04 13:10:27;;;;;;;5.43;3.60;;;;;;;;;;5093431;28;20503;-72
2021/01/04 13:12:52;;;;;;;5.55;3.53;;;;;;;;;;5093290;28;20374;-74
2021/01/04 13:15:18;;;;;;;3.65;2.72;;;;;;;;;;5096351;28;20042;-73
2021/01/04 13:17:44;;;;;;;3.25;2.72;;;;;;;;;;5113636;28;20039;-73
2021/01/04 13:20:10;;;;;;;3.95;2.63;;;;;;;;;;5113387;28;20546;-73
2021/01/04 13:22:35;;;;;;;4.38;3.05;;;;;;;;;;5113651;28;20046;-71
2021/01/04 13:25:01;;;;;;;3.30;2.35;;;;;;;;;;5113595;28;20039;-72
2021/01/04 13:27:26;;;;;;;3.92;2.95;;;;;;;;;;5113600;28;20049;-72
2021/01/04 13:29:53;;;;;;;3.03;2.60;;;;;;;;;;5113582;28;20035;-72
2021/01/04 13:32:19;;;;;;;3.35;2.83;;;;;;;;;;5113516;28;20059;-72
2021/01/04 13:34:46;;;;;;;3.20;2.60;;;;;;;;;;5112132;28;20046;-74
2021/01/04 13:37:12;;;;;;;4.00;2.80;;;;;;;;;;5112231;28;20035;-73
2021/01/04 13:39:38;;;;;;;6.70;4.18;;;;;;;;;;5103803;28;20035;-73
2021/01/04 13:42:04;;;;;;;3.88;2.90;;;;;;;;;;5074098;28;20029;-72
2021/01/04 13:44:30;;;;;;;4.25;3.22;;;;;;;;;;5072710;28;20049;-72
2021/01/04 13:47:07;;;;;;;3.05;2.20;;;;;;;;;;5090137;28;20035;-72
2021/01/04 13:49:33;;;;;;;2.90;2.45;;;;;;;;;;5072769;28;20043;-72
2021/01/04 13:51:58;;;;;;;3.03;2.40;;;;;;;;;;5073059;28;20025;-72
2021/01/04 13:54:24;;;;;;;3.38;2.38;;;;;;;;;;5072890;28;20402;-72
2021/01/04 13:56:51;;;;;;;3.17;2.45;;;;;;;;;;5072431;28;20032;-72
2021/01/04 13:59:18;;;;;;;8.73;4.13;;;;;;;;;;5072797;28;20032;-72
2021/01/04 14:01:43;;;;;;;4.95;3.10;;;;;;;;;;5071323;28;20086;-72
2021/01/04 14:04:10;;;;;;;4.85;3.33;;;;;;;;;;5072642;28;20041;-72
2021/01/04 14:06:40;;;;;;;3.08;2.33;;;;;;;;;;5072731;28;20032;-72
2021/01/04 14:09:07;;;;;;;3.35;2.65;;;;;;;;;;5071226;28;20520;-72
2021/01/04 14:11:32;;;;;;;3.50;2.55;;;;;;;;;;5074746;28;20039;-72
2021/01/04 14:13:58;;;;;;;4.70;2.90;;;;;;;;;;5076207;28;20033;-72
2021/01/04 14:16:25;;;;;;;5.93;4.00;;;;;;;;;;5088564;28;20051;-72
2021/01/04 14:18:52;;;;;;;4.07;3.17;;;;;;;;;;5096287;28;20030;-72
2021/01/04 14:21:18;;;;;;;5.85;2.97;;;;;;;;;;5095068;28;20067;-72
2021/01/04 14:23:47;;;;;;;6.03;4.05;;;;;;;;;;5096321;28;20059;-72
2021/01/04 14:26:21;;;;;;;5.40;3.88;;;;;;;;;;5096605;28;20424;-72
2021/01/04 14:28:46;;;;;;;4.70;3.38;;;;;;;;;;5096019;28;20040;-72
2021/01/04 14:31:12;;;;;;;3.72;2.80;;;;;;;;;;5096191;28;20477;-72
2021/01/04 14:33:37;;;;;;;9.45;5.38;;;;;;;;;;5096219;28;20504;-72
2021/01/04 14:36:03;;;;;;;7.05;4.95;;;;;;;;;;5095174;28;20036;-72
2021/01/04 14:38:28;;;;;;;6.55;4.90;;;;;;;;;;5095934;28;20374;-72
2021/01/04 14:40:55;;;;;;;5.15;4.28;;;;;;;;;;5096105;28;20122;-72
2021/01/04 14:43:20;;;;;;;4.70;3.50;;;;;;;;;;5095731;28;20056;-72
2021/01/04 14:45:46;;;;;;;3.83;2.95;;;;;;;;;;5095987;28;20039;-72
2021/01/04 14:48:11;;;;;;;5.53;2.92;;;;;;;;;;5095784;28;20148;-72
2021/01/04 14:50:37;;;;;;;8.15;4.70;;;;;;;;;;5095019;28;20657;-71
2021/01/04 14:53:02;;;;;;;6.00;4.28;;;;;;;;;;5095549;28;20032;-72
2021/01/04 14:55:28;;;;;;;3.78;3.13;;;;;;;;;;5095696;28;20041;-72
2021/01/04 14:57:53;;;;;;;3.17;2.70;;;;;;;;;;5094293;28;20028;-72
2021/01/04 15:00:19;;;;;;;4.07;2.92;;;;;;;;;;5095544;28;20035;-73
2021/01/04 15:02:44;;;;;;;5.00;3.55;;;;;;;;;;5095557;28;20036;-71
2021/01/04 15:05:10;;;;;;;6.25;4.40;;;;;;;;;;5086449;28;20036;-71
2021/01/04 15:07:36;;;;;;;8.20;5.00;;;;;;;;;;5085669;28;20115;-71
2021/01/04 15:10:03;;;;;;;7.20;4.40;;;;;;;;;;5084384;28;20446;-71
2021/01/04 15:12:28;;;;;;;9.95;5.57;;;;;;;;;;5083844;28;20115;-72
2021/01/04 15:14:54;;;;;;;14.93;8.10;;;;;;;;;;5084849;28;20106;-71
2021/01/04 15:17:19;;;;;;;11.85;5.88;;;;;;;;;;5083648;28;20062;-71
2021/01/04 15:19:44;;;;;;;10.68;6.65;;;;;;;;;;5085284;28;20048;-72
2021/01/04 15:22:10;;;;;;;8.88;5.28;;;;;;;;;;5084293;28;20095;-72
2021/01/04 15:24:35;;;;;;;13.45;8.15;;;;;;;;;;5084892;28;20043;-72
2021/01/04 15:27:02;;;;;;;9.30;5.55;;;;;;;;;;5082031;28;20040;-73
2021/01/04 15:29:27;;;;;;;8.88;5.78;;;;;;;;;;5083942;28;20039;-72